Time;durP1;ratioP1;P1;durP2;ratioP2;P2;SDS_P1;SDS_P2;PMS_P1;PMS_P2;Temp;Humidity;BMP_temperature;BMP_pressure;BME280_temperature;BME280_humidity;BME280_pressure;Samples;Min_cycle;Max_cycle;Signal;HPM_P1;HPM_P2
2023/03/18 00:01:00;;;;;;;24.00;12.20;;;4.00;97.20;;;3.67;60.90;95363.72;5010956;28;20530;-60
2023/03/18 00:03:28;;;;;;;26.07;13.13;;;3.90;97.00;;;3.65;60.61;95361.22;5012913;28;20552;-61
2023/03/18 00:06:04;;;;;;;25.17;11.77;;;3.90;97.00;;;3.63;61.22;95355.28;5004891;28;20461;-59
2023/03/18 00:08:32;;;;;;;24.10;13.20;;;3.90;97.00;;;3.62;60.46;95353.59;5005798;28;20512;-56
2023/03/18 00:11:00;;;;;;;18.73;11.30;;;3.90;97.10;;;3.61;61.12;95357.13;5010469;28;20488;-58
2023/03/18 00:13:27;;;;;;;23.50;11.90;;;3.80;97.30;;;3.57;60.63;95353.84;5000564;28;20512;-56
2023/03/18 00:15:54;;;;;;;28.57;11.90;;;3.80;97.20;;;3.56;61.21;95353.94;5004427;28;20651;-56
2023/03/18 00:18:22;;;;;;;36.67;12.50;;;3.80;97.20;;;3.52;60.79;95348.06;5008010;28;20486;-58
2023/03/18 00:20:50;;;;;;;16.60;9.80;;;3.80;97.20;;;3.49;61.19;95348.22;5009038;28;20454;-58
2023/03/18 00:23:18;;;;;;;26.17;9.63;;;3.70;97.30;;;3.45;60.72;95338.09;5003156;28;20524;-55
2023/03/18 00:25:47;;;;;;;26.57;13.13;;;3.70;97.10;;;3.38;62.12;95337.59;5009180;28;20559;-59
2023/03/18 00:28:14;;;;;;;36.17;13.97;;;3.70;97.50;;;3.34;61.38;95346.47;5005579;28;20922;-59
2023/03/18 00:30:41;;;;;;;44.70;20.63;;;3.60;97.40;;;3.28;61.20;95336.41;4995133;28;20494;-54
2023/03/18 00:33:09;;;;;;;36.10;17.97;;;3.60;97.40;;;3.25;61.45;95341.78;5007038;28;21044;-57
2023/03/18 00:35:36;;;;;;;40.53;15.60;;;3.50;97.40;;;3.20;61.94;95340.25;5010540;28;20944;-58
2023/03/18 00:38:06;;;;;;;30.03;15.60;;;3.50;97.70;;;3.20;61.30;95340.25;5004052;28;20478;-60
2023/03/18 00:40:52;;;;;;;32.97;17.60;;;3.50;97.80;;;3.19;62.00;95330.81;5004478;28;20454;-57
2023/03/18 00:43:21;;;;;;;38.10;19.20;;;3.50;97.90;;;3.18;61.91;95321.31;5014790;28;21010;-58
2023/03/18 00:45:49;;;;;;;44.33;21.57;;;3.40;97.80;;;3.18;61.52;95320.50;4997636;28;20533;-58
2023/03/18 00:48:17;;;;;;;45.50;21.93;;;3.40;97.40;;;3.13;62.06;95325.94;5001990;28;20469;-56
2023/03/18 00:50:44;;;;;;;46.90;22.43;;;3.40;97.70;;;3.10;62.04;95315.72;5017426;28;20493;-55
2023/03/18 00:53:13;;;;;;;46.17;22.57;;;3.40;97.80;;;3.09;62.06;95316.63;5015519;28;20474;-57
2023/03/18 00:55:41;;;;;;;43.80;19.43;;;3.30;97.80;;;3.10;61.24;95305.31;4996369;28;20474;-56
2023/03/18 00:58:08;;;;;;;43.43;21.47;;;3.40;98.00;;;3.10;62.41;95304.47;5014516;28;20464;-58
2023/03/18 01:00:36;;;;;;;54.40;21.17;;;3.40;98.10;;;3.09;62.25;95301.03;5015599;28;20912;-56
2023/03/18 01:03:05;;;;;;;44.83;22.40;;;3.40;98.00;;;3.08;61.98;95298.50;5005261;28;20580;-58
2023/03/18 01:05:32;;;;;;;48.83;22.60;;;3.30;98.10;;;3.08;61.89;95301.94;5005834;28;20500;-57
2023/03/18 01:08:00;;;;;;;57.13;25.17;;;3.30;98.00;;;3.08;61.40;95294.16;5006251;28;20489;-55
2023/03/18 01:10:29;;;;;;;54.20;24.13;;;3.30;97.90;;;3.07;62.24;95292.50;5001635;28;20494;-55
2023/03/18 01:12:56;;;;;;;40.07;20.57;;;3.40;98.00;;;3.07;62.49;95297.69;5006642;28;20579;-57
2023/03/18 01:15:24;;;;;;;42.80;20.67;;;3.30;98.10;;;3.07;61.99;95289.03;5011595;28;20512;-55
2023/03/18 01:17:55;;;;;;;41.90;19.97;;;3.30;98.10;;;3.05;62.32;95295.19;5001218;28;20485;-59
2023/03/18 01:20:22;;;;;;;41.33;20.33;;;3.30;98.20;;;3.05;62.84;95294.31;5003641;28;20506;-55
2023/03/18 01:22:50;;;;;;;41.20;18.57;;;3.30;98.10;;;3.03;61.66;95296.16;5003560;28;20551;-59
2023/03/18 01:25:17;;;;;;;50.57;20.50;;;3.30;98.10;;;3.01;61.59;95293.66;5005534;28;20497;-56
2023/03/18 01:27:46;;;;;;;43.17;20.87;;;3.30;98.20;;;3.02;62.16;95297.06;4998182;28;21488;-58
2023/03/18 01:30:14;;;;;;;42.10;20.37;;;3.30;98.30;;;3.00;61.68;95289.38;5010607;28;20459;-54
2023/03/18 01:32:42;;;;;;;43.00;20.53;;;3.30;98.40;;;3.00;62.10;95297.16;5002417;28;20481;-56
2023/03/18 01:35:11;;;;;;;50.03;23.07;;;3.30;98.30;;;2.99;61.90;95292.06;4996251;28;20477;-58
2023/03/18 01:37:38;;;;;;;43.10;20.67;;;3.30;98.30;;;3.00;62.34;95286.78;5018389;28;20571;-55
2023/03/18 01:40:07;;;;;;;45.73;21.70;;;3.20;98.30;;;3.00;61.72;95291.13;5008465;28;21049;-60
2023/03/18 01:42:35;;;;;;;40.60;20.20;;;3.30;98.40;;;2.99;61.70;95286.84;5003346;28;20802;-58
2023/03/18 01:45:20;;;;;;;38.57;19.30;;;3.20;98.30;;;2.98;61.95;95298.19;5010881;28;20464;-59
2023/03/18 01:47:48;;;;;;;34.53;18.73;;;3.20;98.30;;;2.95;62.26;95288.78;5010261;28;20480;-56
2023/03/18 01:50:17;;;;;;;37.10;18.63;;;3.20;98.20;;;2.93;62.13;95290.63;4997521;28;20452;-59
2023/03/18 01:52:45;;;;;;;28.73;16.13;;;3.20;98.30;;;2.91;62.30;95283.84;5012652;28;20535;-60
2023/03/18 01:55:14;;;;;;;29.63;16.73;;;3.20;98.40;;;2.89;62.47;95283.09;5005307;28;20463;-55
2023/03/18 01:57:42;;;;;;;36.03;16.00;;;3.20;98.40;;;2.86;62.31;95279.72;5003231;28;20524;-56
2023/03/18 02:00:11;;;;;;;36.10;16.80;;;3.10;98.30;;;2.86;63.06;95279.72;5003230;28;20465;-58
2023/03/18 02:02:41;;;;;;;30.03;16.63;;;3.10;98.50;;;2.85;62.91;95283.25;5016114;28;20477;-58
2023/03/18 02:05:11;;;;;;;30.77;15.00;;;3.10;98.40;;;2.81;62.60;95276.53;4999747;28;20457;-58
2023/03/18 02:07:41;;;;;;;26.53;15.20;;;3.10;98.50;;;2.82;62.50;95280.81;4991990;28;20482;-58
2023/03/18 02:10:12;;;;;;;29.30;12.90;;;3.10;98.40;;;2.81;62.70;95271.34;5009319;28;20470;-56
2023/03/18 02:12:42;;;;;;;29.93;13.57;;;3.10;98.70;;;2.82;61.68;95273.03;5002943;28;20482;-58
2023/03/18 02:15:20;;;;;;;23.23;13.00;;;3.10;98.50;;;2.81;62.86;95278.31;4997271;28;20974;-57
2023/03/18 02:17:55;;;;;;;39.73;12.90;;;3.10;98.70;;;2.80;62.69;95274.84;5006174;28;20567;-55
2023/03/18 02:20:38;;;;;;;22.33;13.07;;;3.00;98.70;;;2.79;62.92;95273.19;5007944;28;20536;-55
2023/03/18 02:23:13;;;;;;;23.43;12.87;;;3.10;98.80;;;2.76;62.73;95262.97;4999593;28;20587;-56
2023/03/18 02:25:46;;;;;;;24.40;13.23;;;3.00;98.70;;;2.75;62.73;95261.28;5019061;28;20457;-55
2023/03/18 02:28:19;;;;;;;26.93;12.83;;;3.00;98.60;;;2.75;61.99;95271.69;5001636;28;20474;-55
2023/03/18 02:30:47;;;;;;;22.97;10.63;;;3.00;98.60;;;2.73;62.46;95270.06;4999620;28;20932;-55
2023/03/18 02:33:16;;;;;;;35.07;13.17;;;3.00;98.60;;;2.72;62.48;95266.66;5002251;28;20563;-59
2023/03/18 02:35:44;;;;;;;22.10;12.00;;;3.00;98.60;;;2.73;61.95;95268.34;5008500;28;20466;-59
2023/03/18 02:38:11;;;;;;;18.27;11.37;;;3.00;98.50;;;2.69;61.90;95267.63;5005152;28;20481;-57
2023/03/18 02:40:40;;;;;;;23.50;10.93;;;3.00;98.50;;;2.68;63.05;95268.59;5000732;28;20457;-60
2023/03/18 02:43:19;;;;;;;19.17;10.20;;;3.00;98.60;;;2.67;62.62;95266.06;5006785;28;20572;-59
2023/03/18 02:45:58;;;;;;;19.67;11.40;;;3.00;98.50;;;2.66;62.39;95273.00;5000764;28;20473;-59
2023/03/18 02:48:28;;;;;;;14.53;9.30;;;2.90;98.50;;;2.65;63.03;95267.88;5007629;28;20491;-57
2023/03/18 02:50:56;;;;;;;24.00;12.77;;;2.90;98.60;;;2.65;62.28;95268.75;5003504;28;20489;-55
2023/03/18 02:53:23;;;;;;;24.97;11.63;;;2.90;98.50;;;2.65;62.96;95276.53;4998358;28;20488;-58
2023/03/18 02:55:50;;;;;;;20.83;11.50;;;2.90;98.60;;;2.63;61.88;95268.00;5000760;28;20495;-58
2023/03/18 02:58:19;;;;;;;21.03;12.07;;;2.90;98.50;;;2.62;61.81;95265.47;5007164;28;20971;-59
2023/03/18 03:00:47;;;;;;;18.57;11.27;;;2.90;98.40;;;2.59;62.50;95265.66;5009939;28;20561;-58
2023/03/18 03:03:14;;;;;;;25.70;12.03;;;2.90;98.40;;;2.56;61.83;95273.59;4997425;28;21042;-57
2023/03/18 03:05:41;;;;;;;23.90;12.07;;;2.90;98.50;;;2.53;62.97;95268.56;5004179;28;20825;-56
2023/03/18 03:08:08;;;;;;;16.90;11.03;;;2.80;98.40;;;2.49;61.81;95266.13;5008256;28;21008;-60
2023/03/18 03:10:36;;;;;;;18.93;11.60;;;2.80;98.40;;;2.48;62.14;95268.81;4991244;28;20469;-59
2023/03/18 03:13:03;;;;;;;19.20;11.27;;;2.80;98.40;;;2.46;62.22;95270.63;5012442;28;20794;-59
2023/03/18 03:15:32;;;;;;;18.63;9.27;;;2.80;98.70;;;2.43;62.55;95269.06;5010933;28;20854;-58
2023/03/18 03:17:59;;;;;;;16.10;10.07;;;2.70;98.70;;;2.40;62.54;95277.00;5010586;28;21191;-56
2023/03/18 03:20:27;;;;;;;20.47;9.30;;;2.70;98.70;;;2.38;62.30;95278.00;5005719;28;20540;-54
2023/03/18 03:22:54;;;;;;;18.77;9.97;;;2.70;98.80;;;2.33;63.48;95278.22;5007663;28;20913;-59
2023/03/18 03:25:22;;;;;;;16.90;10.43;;;2.70;99.00;;;2.31;63.12;95282.66;5013976;28;20452;-57
2023/03/18 03:27:49;;;;;;;16.40;11.10;;;2.60;98.90;;;2.29;63.48;95285.34;5011175;28;20481;-59
2023/03/18 03:30:17;;;;;;;16.80;10.20;;;2.60;99.00;;;2.27;63.66;95284.56;5025472;28;20460;-59
2023/03/18 03:32:47;;;;;;;19.87;11.47;;;2.60;98.90;;;2.26;63.34;95279.44;5008658;28;20551;-55
2023/03/18 03:35:17;;;;;;;22.63;10.10;;;2.60;98.90;;;2.25;63.97;95283.00;5006397;28;20499;-58
2023/03/18 03:37:45;;;;;;;15.97;10.97;;;2.50;99.00;;;2.23;64.23;95290.00;5026259;28;20469;-58
2023/03/18 03:40:15;;;;;;;16.27;11.13;;;2.50;99.20;;;2.21;62.73;95290.06;5014557;28;20459;-55
2023/03/18 03:42:43;;;;;;;17.53;9.57;;;2.50;99.10;;;2.21;63.24;95286.66;5014876;28;20482;-55
2023/03/18 03:45:12;;;;;;;23.13;9.93;;;2.50;99.10;;;2.19;63.14;95283.31;5020412;28;20460;-56
2023/03/18 03:47:40;;;;;;;16.27;10.13;;;2.50;99.10;;;2.17;63.12;95288.56;5025225;28;20469;-56
2023/03/18 03:50:11;;;;;;;13.67;10.17;;;2.50;99.10;;;2.17;62.59;95295.50;5009646;28;20926;-56
2023/03/18 03:52:39;;;;;;;17.07;10.20;;;2.50;99.10;;;2.17;62.87;95292.91;5017150;28;20579;-59
2023/03/18 03:55:09;;;;;;;19.47;10.07;;;2.50;99.30;;;2.15;63.11;95299.03;5021919;28;20890;-54
2023/03/18 03:57:36;;;;;;;18.67;10.57;;;2.50;99.20;;;2.15;63.52;95300.75;5015665;28;20508;-58
2023/03/18 04:00:06;;;;;;;13.47;10.13;;;2.40;99.30;;;2.13;63.08;95300.84;5006970;28;20461;-59
2023/03/18 04:02:34;;;;;;;24.03;11.17;;;2.40;99.20;;;2.14;62.88;95299.09;5016174;28;21461;-58
2023/03/18 04:05:02;;;;;;;22.90;11.20;;;2.40;99.40;;;2.14;63.01;95291.31;5015781;28;21058;-60
2023/03/18 04:07:31;;;;;;;16.97;9.60;;;2.40;99.40;;;2.13;63.05;95295.66;5008667;28;20470;-59
2023/03/18 04:09:59;;;;;;;18.47;10.47;;;2.40;99.40;;;2.13;63.54;95289.63;5019318;28;20583;-58
2023/03/18 04:12:27;;;;;;;15.87;9.57;;;2.40;99.50;;;2.12;63.43;95287.94;5025006;28;21028;-59
2023/03/18 04:14:55;;;;;;;15.57;9.83;;;2.40;99.40;;;2.10;62.88;95297.56;5010963;28;20461;-59
2023/03/18 04:17:24;;;;;;;21.33;11.13;;;2.40;99.40;;;2.12;63.63;95298.31;5026164;28;22369;-61
2023/03/18 04:19:53;;;;;;;20.90;10.67;;;2.40;99.40;;;2.10;63.98;95306.19;5022274;28;20530;-56
2023/03/18 04:22:21;;;;;;;18.30;10.30;;;2.40;99.40;;;2.10;63.78;95306.19;5011624;28;20496;-56
2023/03/18 04:24:51;;;;;;;15.43;10.47;;;2.40;99.40;;;2.10;63.06;95311.38;5009372;28;20457;-59
2023/03/18 04:27:19;;;;;;;15.87;8.87;;;2.40;99.40;;;2.08;63.19;95313.22;5009366;28;20473;-54
2023/03/18 04:29:47;;;;;;;19.27;10.33;;;2.40;99.40;;;2.06;63.81;95315.06;5008934;28;20994;-58
2023/03/18 04:32:15;;;;;;;18.77;11.93;;;2.40;99.60;;;2.04;64.09;95323.81;5000200;28;20949;-56
2023/03/18 04:34:43;;;;;;;26.23;13.90;;;2.30;99.80;;;2.03;63.52;95320.41;5011894;28;20446;-56
2023/03/18 04:37:13;;;;;;;22.87;14.37;;;2.30;99.40;;;2.02;63.60;95334.28;5014148;28;20861;-57
2023/03/18 04:39:43;;;;;;;22.43;12.80;;;2.30;99.30;;;2.01;63.76;95335.19;5005102;28;20844;-56
2023/03/18 04:42:13;;;;;;;25.10;13.63;;;2.30;99.30;;;2.00;63.30;95317.97;5014705;28;20564;-59
2023/03/18 04:44:40;;;;;;;20.00;14.20;;;2.30;99.30;;;2.01;63.75;95336.94;5009509;28;20453;-56
2023/03/18 04:47:09;;;;;;;26.40;13.93;;;2.30;99.30;;;2.01;63.64;95332.59;5006791;28;20473;-56
2023/03/18 04:49:38;;;;;;;24.33;14.70;;;2.30;99.50;;;2.01;63.47;95329.16;5016731;28;20491;-55
2023/03/18 04:52:06;;;;;;;23.93;12.93;;;2.30;99.20;;;2.01;63.51;95334.34;5023271;28;21616;-59
2023/03/18 04:54:33;;;;;;;24.10;11.73;;;2.30;99.20;;;2.01;63.61;95340.38;5003592;28;20879;-61
2023/03/18 04:57:02;;;;;;;22.87;12.60;;;2.30;99.10;;;2.03;63.46;95338.56;5019755;28;20488;-67
2023/03/18 04:59:31;;;;;;;22.17;12.60;;;2.30;99.20;;;2.03;62.60;95333.38;5010687;28;20457;-60
2023/03/18 05:01:59;;;;;;;40.27;12.67;;;2.30;99.10;;;2.05;62.71;95341.91;5012898;28;20470;-59
2023/03/18 05:04:27;;;;;;;31.00;13.10;;;2.30;99.20;;;2.08;62.69;95349.53;5018720;28;20532;-58
2023/03/18 05:06:55;;;;;;;26.20;12.60;;;2.40;99.30;;;2.08;63.73;95341.75;5011450;28;20462;-56
2023/03/18 05:09:24;;;;;;;28.43;13.27;;;2.40;99.40;;;2.08;63.82;95344.34;5004693;28;20545;-59
2023/03/18 05:11:51;;;;;;;23.03;12.77;;;2.40;99.40;;;2.11;63.50;95344.19;5008935;28;20513;-56
2023/03/18 05:14:19;;;;;;;25.87;12.50;;;2.40;99.40;;;2.11;62.61;95344.19;5024418;28;20461;-60
2023/03/18 05:16:49;;;;;;;26.47;13.23;;;2.40;99.30;;;2.15;62.75;95342.28;5011672;28;20652;-56
2023/03/18 05:19:17;;;;;;;22.40;12.97;;;2.40;99.20;;;2.19;62.90;95343.81;5003587;28;20461;-56
2023/03/18 05:21:45;;;;;;;31.23;12.80;;;2.50;99.10;;;2.22;63.35;95335.88;5013574;28;20516;-55
2023/03/18 05:24:12;;;;;;;26.83;13.30;;;2.50;99.10;;;2.32;62.75;95347.47;5017179;28;20577;-60
2023/03/18 05:26:39;;;;;;;22.67;11.80;;;2.60;99.10;;;2.44;62.07;95337.38;5001388;28;20481;-60
2023/03/18 05:29:07;;;;;;;18.73;11.43;;;2.70;98.90;;;2.54;62.75;95342.94;5007387;28;20462;-58
2023/03/18 05:31:35;;;;;;;23.10;12.60;;;2.80;98.70;;;2.59;62.71;95343.53;5011508;28;20498;-56
2023/03/18 05:34:06;;;;;;;20.67;11.57;;;2.90;98.60;;;2.62;62.07;95338.19;5008955;28;20540;-60
2023/03/18 05:36:33;;;;;;;33.07;14.17;;;2.90;98.50;;;2.63;62.28;95343.31;5001908;28;20501;-60
2023/03/18 05:39:01;;;;;;;26.37;13.77;;;2.90;98.20;;;2.65;62.01;95343.19;5014305;28;20461;-60
2023/03/18 05:41:28;;;;;;;29.03;13.90;;;2.90;98.20;;;2.66;61.61;95344.88;5012568;28;20453;-55
2023/03/18 05:43:59;;;;;;;26.53;14.60;;;2.90;98.20;;;2.65;61.36;95346.66;5002488;28;20458;-59
2023/03/18 05:46:28;;;;;;;30.53;16.00;;;2.90;98.20;;;2.62;61.34;95353.78;5014789;28;21067;-59
2023/03/18 05:48:55;;;;;;;29.73;15.83;;;2.90;98.10;;;2.56;61.42;95356.69;5009919;28;20877;-54
2023/03/18 05:51:25;;;;;;;54.27;16.40;;;2.90;98.20;;;2.50;61.91;95358.66;5008206;28;20501;-58
2023/03/18 05:53:52;;;;;;;28.07;14.30;;;2.80;98.50;;;2.46;62.92;95375.34;5013756;28;20457;-61
2023/03/18 05:56:20;;;;;;;33.07;16.67;;;2.80;98.70;;;2.45;62.91;95367.63;5017750;28;20469;-53
2023/03/18 05:58:47;;;;;;;36.70;17.80;;;2.80;98.90;;;2.47;62.85;95360.59;5008061;28;20466;-59
2023/03/18 06:01:15;;;;;;;37.47;19.47;;;2.80;99.10;;;2.46;63.79;95372.72;5021952;28;20548;-56
2023/03/18 06:03:43;;;;;;;44.20;18.83;;;2.80;99.60;;;2.41;64.01;95366.91;5016890;28;21103;-55
2023/03/18 06:06:11;;;;;;;49.93;19.73;;;2.70;99.90;;;2.42;64.10;95375.56;5002634;28;20474;-59
2023/03/18 06:08:40;;;;;;;41.30;19.37;;;2.70;99.90;;;2.41;64.86;95368.69;5009330;28;20456;-59
2023/03/18 06:11:07;;;;;;;37.33;19.73;;;2.70;99.90;;;2.47;65.71;95374.41;5015641;28;20461;-59
2023/03/18 06:13:36;;;;;;;39.47;19.73;;;2.70;99.90;;;2.54;65.13;95374.09;5001505;28;20586;-58
2023/03/18 06:16:03;;;;;;;36.27;20.93;;;2.80;99.90;;;2.62;64.36;95375.38;5009149;28;20453;-56
2023/03/18 06:18:32;;;;;;;44.17;21.40;;;2.90;99.90;;;2.70;64.49;95374.97;5017907;28;21009;-58
2023/03/18 06:21:00;;;;;;;42.37;21.40;;;2.90;99.90;;;2.81;64.57;95375.25;5007608;28;20459;-58
2023/03/18 06:23:27;;;;;;;37.07;19.93;;;3.00;99.90;;;2.92;64.06;95376.47;5008096;28;20851;-57
2023/03/18 06:25:56;;;;;;;47.20;21.57;;;3.10;99.90;;;3.02;63.73;95365.50;5016486;28;20516;-56
2023/03/18 06:28:23;;;;;;;41.33;20.60;;;3.30;99.90;;;3.16;64.18;95374.28;5004124;28;20489;-56
2023/03/18 06:30:51;;;;;;;37.73;20.30;;;3.40;99.90;;;3.31;62.98;95362.25;4998969;28;20469;-58
2023/03/18 06:33:19;;;;;;;45.70;20.03;;;3.50;99.90;;;3.51;63.26;95356.78;5005083;28;20497;-54
2023/03/18 06:35:48;;;;;;;42.93;21.83;;;3.70;99.50;;;3.71;62.55;95354.84;5013718;28;20966;-60
2023/03/18 06:38:16;;;;;;;40.73;20.60;;;3.90;99.20;;;3.88;62.19;95356.50;5008101;28;20481;-56
2023/03/18 06:40:43;;;;;;;44.73;21.20;;;4.00;99.10;;;4.07;61.44;95348.47;5007928;28;20453;-53
2023/03/18 06:43:12;;;;;;;41.47;21.00;;;4.20;98.90;;;4.28;61.40;95357.63;5015359;28;20481;-59
2023/03/18 06:45:39;;;;;;;39.33;20.80;;;4.40;98.60;;;4.51;61.09;95354.59;5010667;28;20449;-59
2023/03/18 06:48:08;;;;;;;41.80;23.23;;;4.60;98.30;;;4.72;60.76;95352.50;4994612;28;20496;-56
2023/03/18 06:50:35;;;;;;;41.70;23.23;;;4.90;98.10;;;5.02;59.77;95350.63;5016402;28;20453;-60
2023/03/18 06:53:04;;;;;;;47.60;23.33;;;5.10;97.90;;;5.30;59.75;95343.72;5010270;28;20530;-60
2023/03/18 06:55:31;;;;;;;44.60;21.67;;;5.40;97.70;;;5.50;59.03;95350.28;5006980;28;20460;-56
2023/03/18 06:57:58;;;;;;;54.83;20.57;;;5.60;97.10;;;5.68;58.47;95353.47;5010759;28;20485;-54
2023/03/18 07:00:30;;;;;;;34.20;20.50;;;5.70;96.70;;;5.85;58.17;95348.94;5007538;28;20485;-58
2023/03/18 07:02:58;;;;;;;62.93;29.60;;;5.90;95.90;;;5.95;58.63;95355.25;5005227;28;20485;-56
2023/03/18 07:05:25;;;;;;;48.07;23.17;;;6.10;96.60;;;6.16;59.74;95349.59;5010832;28;20461;-56
2023/03/18 07:07:53;;;;;;;33.20;19.27;;;6.30;97.60;;;6.38;58.39;95349.84;5007669;28;21167;-58
2023/03/18 07:10:22;;;;;;;36.70;20.73;;;6.50;96.60;;;6.64;58.18;95342.84;5006827;28;20461;-59
2023/03/18 07:12:51;;;;;;;35.93;19.57;;;6.80;96.20;;;6.96;57.71;95341.59;5006039;28;20503;-59
2023/03/18 07:15:21;;;;;;;43.60;21.00;;;7.00;95.70;;;7.20;56.68;95343.44;5006334;28;20480;-56
2023/03/18 07:17:51;;;;;;;49.53;21.77;;;7.30;95.30;;;7.33;56.14;95347.72;5007583;28;20982;-63
2023/03/18 07:20:21;;;;;;;37.43;21.43;;;7.40;94.50;;;7.54;56.09;95349.75;5001083;28;20545;-55
2023/03/18 07:22:48;;;;;;;38.80;19.80;;;7.60;93.90;;;7.76;55.42;95330.75;5014244;28;20490;-61
2023/03/18 07:25:15;;;;;;;36.63;21.80;;;7.80;94.00;;;8.06;55.23;95335.50;5009430;28;20997;-60
2023/03/18 07:27:44;;;;;;;40.60;21.73;;;8.10;93.80;;;8.25;54.98;95337.59;5004490;28;20496;-63
2023/03/18 07:30:13;;;;;;;35.07;19.73;;;8.30;93.40;;;8.41;54.71;95349.56;5016444;28;20540;-56
2023/03/18 07:32:40;;;;;;;34.30;20.50;;;8.50;92.80;;;8.67;54.67;95344.19;5000256;28;20553;-61
2023/03/18 07:35:12;;;;;;;32.70;18.00;;;8.70;93.10;;;8.96;54.26;95341.94;5007154;28;20446;-61
2023/03/18 07:37:40;;;;;;;35.03;20.73;;;9.00;92.40;;;9.47;54.36;95343.25;5013652;28;20484;-55
2023/03/18 07:40:08;;;;;;;27.50;18.70;;;9.40;92.80;;;10.08;53.16;95342.72;5014419;28;20544;-60
2023/03/18 07:42:36;;;;;;;31.80;17.50;;;10.00;91.50;;;10.69;50.96;95350.03;5000454;28;20470;-60
2023/03/18 07:45:04;;;;;;;27.63;18.43;;;10.60;88.70;;;11.28;52.00;95351.16;5008748;28;20457;-57
2023/03/18 07:47:31;;;;;;;23.73;15.90;;;11.20;90.00;;;11.96;51.14;95339.16;5015060;28;20500;-60
2023/03/18 07:49:59;;;;;;;26.27;15.83;;;11.90;88.90;;;12.64;51.09;95338.34;5002459;28;20473;-60
2023/03/18 07:52:28;;;;;;;36.93;18.43;;;12.60;88.90;;;13.30;48.66;95334.00;4999992;28;20523;-60
2023/03/18 07:54:55;;;;;;;25.97;16.90;;;13.30;82.30;;;13.89;48.36;95334.56;5009099;28;20453;-59
2023/03/18 07:57:22;;;;;;;27.33;17.10;;;13.90;82.50;;;14.51;45.99;95332.03;4998875;28;20526;-60
2023/03/18 07:59:50;;;;;;;23.67;17.40;;;14.60;76.20;;;14.95;45.99;95331.22;4997742;28;20469;-55
2023/03/18 08:02:17;;;;;;;31.00;17.77;;;15.10;74.60;;;15.32;44.91;95328.31;5001998;28;20481;-61
2023/03/18 08:04:45;;;;;;;27.07;16.70;;;15.60;71.50;;;15.75;44.76;95334.47;5009958;28;20568;-61
2023/03/18 08:07:12;;;;;;;27.13;17.33;;;15.90;70.60;;;16.19;41.39;95327.31;5005668;28;20481;-56
2023/03/18 08:09:41;;;;;;;30.40;18.60;;;16.30;63.20;;;16.52;42.21;95324.72;5017018;28;20544;-61
2023/03/18 08:12:09;;;;;;;26.10;17.00;;;16.70;62.90;;;16.76;39.00;95326.50;5013612;28;20477;-57
2023/03/18 08:14:37;;;;;;;21.50;15.60;;;16.90;58.30;;;17.00;40.26;95323.06;4998109;28;20490;-56
2023/03/18 08:17:04;;;;;;;28.07;16.37;;;17.10;60.00;;;17.30;41.89;95331.28;5005480;28;20488;-59
2023/03/18 08:19:32;;;;;;;21.07;15.77;;;17.40;62.60;;;17.63;39.92;95325.88;5019856;28;20456;-59
2023/03/18 08:22:00;;;;;;;22.57;15.47;;;17.70;59.30;;;17.85;40.88;95326.97;4996057;28;21001;-57
2023/03/18 08:24:27;;;;;;;26.07;14.53;;;18.00;60.20;;;18.13;40.64;95329.16;4999935;28;20516;-59
2023/03/18 08:26:56;;;;;;;20.33;13.83;;;18.20;59.50;;;18.40;39.54;95320.69;5004681;28;20472;-55
2023/03/18 08:29:23;;;;;;;16.53;14.50;;;18.50;58.20;;;18.70;39.64;95330.59;5007273;28;20986;-60
2023/03/18 08:31:51;;;;;;;23.53;15.87;;;18.80;57.40;;;18.98;38.24;95329.06;5000854;28;20496;-61
2023/03/18 08:34:18;;;;;;;24.43;16.77;;;19.10;55.20;;;19.18;37.87;95328.53;5009921;28;20532;-59
2023/03/18 08:36:45;;;;;;;18.23;14.80;;;19.30;55.50;;;19.45;36.92;95318.25;5007179;28;21029;-59
2023/03/18 08:39:13;;;;;;;24.07;16.33;;;19.50;54.30;;;19.56;36.57;95316.97;5002605;28;20883;-55
2023/03/18 08:41:40;;;;;;;34.53;17.00;;;19.60;53.40;;;19.39;35.09;95317.16;5007019;28;20500;-57
2023/03/18 08:44:10;;;;;;;21.53;14.77;;;19.50;50.90;;;19.14;35.77;95327.25;4998669;28;21059;-57
2023/03/18 08:46:37;;;;;;;23.10;15.30;;;19.30;51.10;;;18.95;35.72;95321.41;5002593;28;20536;-55
2023/03/18 08:49:04;;;;;;;20.17;14.53;;;19.10;50.00;;;18.78;36.16;95322.56;5006154;28;20543;-57
2023/03/18 08:51:32;;;;;;;20.00;14.87;;;18.80;51.40;;;18.83;34.82;95322.00;5005274;28;20566;-60
2023/03/18 08:53:59;;;;;;;20.90;15.50;;;18.70;50.80;;;18.76;35.45;95324.53;5008031;28;20498;-60
2023/03/18 08:56:27;;;;;;;23.93;15.80;;;18.70;50.20;;;18.53;35.57;95324.56;5000478;28;20614;-56
2023/03/18 08:58:56;;;;;;;22.43;14.97;;;18.50;50.10;;;18.30;34.96;95324.56;5003469;28;20461;-55
2023/03/18 09:01:24;;;;;;;19.47;14.97;;;18.20;49.70;;;18.28;35.40;95317.59;4986091;28;20477;-59
2023/03/18 09:03:52;;;;;;;22.10;16.60;;;18.10;50.50;;;18.43;34.77;95324.81;4998426;28;20461;-56
2023/03/18 09:06:19;;;;;;;26.50;16.90;;;18.20;50.40;;;18.53;34.79;95316.56;5012709;28;20478;-61
2023/03/18 09:08:47;;;;;;;23.67;16.50;;;18.30;50.10;;;18.67;35.18;95325.63;5001187;28;20573;-57
2023/03/18 09:11:15;;;;;;;19.00;13.80;;;18.40;50.40;;;18.89;34.42;95319.47;5002727;28;20470;-61
2023/03/18 09:13:42;;;;;;;21.47;14.03;;;18.60;49.40;;;19.10;34.84;95320.59;5002923;28;20501;-56
2023/03/18 09:16:09;;;;;;;27.17;16.93;;;18.80;49.10;;;19.29;33.45;95320.09;5002536;28;21317;-60
2023/03/18 09:18:38;;;;;;;27.70;17.17;;;19.00;48.30;;;19.49;33.60;95314.22;5003444;28;20485;-53
2023/03/18 09:21:06;;;;;;;27.53;16.60;;;19.20;48.50;;;19.47;34.32;95318.91;4996003;28;20488;-56
2023/03/18 09:23:33;;;;;;;21.43;15.60;;;19.20;48.90;;;19.35;32.35;95322.03;5010345;28;21021;-58
2023/03/18 09:26:01;;;;;;;27.83;15.03;;;19.20;46.70;;;19.30;33.16;95320.91;4997814;28;20832;-57
2023/03/18 09:28:32;;;;;;;20.00;13.90;;;19.10;46.20;;;19.14;33.16;95320.06;5003201;28;20493;-57
2023/03/18 09:31:00;;;;;;;21.30;13.10;;;19.10;47.30;;;19.03;32.92;95323.19;5002270;28;20496;-57
2023/03/18 09:33:27;;;;;;;15.40;10.93;;;18.90;46.80;;;18.91;32.51;95314.78;4997096;28;21430;-56
2023/03/18 09:35:56;;;;;;;21.33;13.03;;;18.80;45.40;;;18.99;32.92;95313.88;4999679;28;20469;-57
2023/03/18 09:38:23;;;;;;;10.50;8.73;;;18.80;46.70;;;19.01;31.65;95313.69;4999660;28;20497;-57
2023/03/18 09:41:03;;;;;;;9.73;8.73;;;18.80;43.30;;;18.85;30.20;95315.50;5002138;28;20477;-58
2023/03/18 09:43:48;;;;;;;14.47;9.50;;;18.70;42.00;;;18.67;31.47;95305.16;5003003;28;20497;-59
2023/03/18 09:46:23;;;;;;;10.53;9.07;;;18.60;43.90;;;18.63;31.83;95304.66;5004149;28;20461;-59
2023/03/18 09:49:16;;;;;;;13.03;8.37;;;18.50;44.50;;;18.77;31.76;95304.88;5004884;28;20545;-57
2023/03/18 09:51:53;;;;;;;10.57;6.73;;;18.60;45.50;;;18.82;30.53;95307.84;4998900;28;20558;-58
2023/03/18 09:54:28;;;;;;;8.70;5.93;;;18.60;43.80;;;18.76;32.00;95303.22;5001645;28;20497;-59
2023/03/18 09:56:55;;;;;;;6.67;4.60;;;18.60;44.30;;;18.66;29.49;95297.34;5001497;28;21257;-57
2023/03/18 09:59:25;;;;;;;6.67;4.97;;;18.50;41.60;;;18.43;32.12;95306.16;5000524;28;20549;-57
2023/03/18 10:01:54;;;;;;;5.10;4.60;;;18.40;43.90;;;18.26;30.72;95300.97;5002539;28;20525;-58
2023/03/18 10:04:23;;;;;;;5.80;5.30;;;18.20;44.00;;;18.24;31.96;95299.47;5005890;28;21262;-58
2023/03/18 10:06:55;;;;;;;7.20;5.20;;;18.20;43.90;;;18.19;32.53;95301.84;5002683;28;20485;-58
2023/03/18 10:09:27;;;;;;;6.93;5.17;;;18.10;45.60;;;18.03;31.01;95300.09;5004591;28;20478;-58
2023/03/18 10:11:57;;;;;;;4.70;3.87;;;18.00;44.00;;;17.95;32.26;95308.94;5003663;28;20485;-59
2023/03/18 10:14:36;;;;;;;4.50;3.97;;;17.90;45.20;;;17.74;30.94;95301.56;4993674;28;21080;-59
2023/03/18 10:17:13;;;;;;;7.30;5.07;;;17.70;43.80;;;17.53;31.05;95305.63;5003407;28;20565;-57
2023/03/18 10:19:43;;;;;;;10.03;4.90;;;17.50;43.70;;;17.48;31.57;95299.16;5004326;28;20461;-57
2023/03/18 10:22:23;;;;;;;4.40;4.00;;;17.40;43.40;;;17.55;31.91;95300.97;5002300;28;20506;-57
2023/03/18 10:24:55;;;;;;;4.77;4.40;;;17.40;44.50;;;17.61;30.78;95304.75;5003578;28;20465;-58